ESOE/ORB METAR and TAF weather

Enter ICAO airport designator
Station Type Date Time Source
ESOE METAR 2019/08/19 01:50 UTC NOAA

ESOE 190150Z 20007KT 9999 FEW021 SCT061 14/12 Q1001


Station Type Date Time Source
ESOE Decoded METAR 2019/08/19 01:50 UTC NOAA

Station name not available
Aug 18, 2019 - 09:50 PM EDT / 2019.08.19 0150 UTC
Wind: from the SSW (200 degrees) at 8 MPH (7 KT):0
Visibility: greater than 7 mile(s):0
Sky conditions: partly cloudy
Temperature: 57 F (14 C)
Dew Point: 53 F (12 C)
Relative Humidity: 87%
Pressure (altimeter): 29.56 in. Hg (1001 hPa)
ob: ESOE 190150Z 20007KT 9999 FEW021 SCT061 14/12 Q1001
cycle: 2

Station Type Date Time Source
ESOE TAF 2016/03/16 04:36 UTC NOAA

TAF TAF ESOE 160330Z 1604/1624 23005KT 9000 BR NSC PROB40 1604/1607 1200 BR

Example: see airport list